Time;durP1;ratioP1;P1;durP2;ratioP2;P2;SDS_P1;SDS_P2;PMS_P1;PMS_P2;Temp;Humidity;BMP_temperature;BMP_pressure;BME280_temperature;BME280_humidity;BME280_pressure;Samples;Min_cycle;Max_cycle;Signal;HPM_P1;HPM_P2
2020/12/30 00:00:33;;;;;;;8.80;4.80;;;3.60;99.90;;;;;;5067260;28;20591;-61
2020/12/30 00:02:59;;;;;;;7.17;4.60;;;3.70;99.90;;;;;;5066042;28;20926;-61
2020/12/30 00:05:25;;;;;;;8.47;4.90;;;3.70;99.90;;;;;;5066885;28;20561;-61
2020/12/30 00:07:51;;;;;;;7.70;4.40;;;3.70;99.90;;;;;;5065459;28;20206;-58
2020/12/30 00:10:20;;;;;;;7.17;4.60;;;3.80;99.90;;;;;;5067059;28;20230;-59
2020/12/30 00:12:47;;;;;;;7.20;4.23;;;3.80;99.90;;;;;;5067579;28;20205;-63
2020/12/30 00:15:14;;;;;;;5.47;4.27;;;3.80;99.90;;;;;;5067446;28;20206;-62
2020/12/30 00:17:41;;;;;;;7.40;4.70;;;3.80;99.90;;;;;;5066221;28;20198;-58
2020/12/30 00:20:09;;;;;;;7.83;4.83;;;3.80;99.90;;;;;;5067734;28;20222;-62
2020/12/30 00:22:35;;;;;;;8.10;4.47;;;3.90;99.90;;;;;;5065696;28;20198;-63
2020/12/30 00:25:02;;;;;;;7.73;4.60;;;3.90;99.90;;;;;;5069300;28;20198;-62
2020/12/30 00:27:29;;;;;;;8.83;4.47;;;3.80;99.90;;;;;;5070510;28;20198;-62
2020/12/30 00:29:55;;;;;;;8.43;4.83;;;3.90;99.90;;;;;;5067380;28;20218;-62
2020/12/30 00:32:22;;;;;;;7.23;4.53;;;3.90;99.90;;;;;;5069345;28;20226;-62
2020/12/30 00:34:49;;;;;;;8.97;4.97;;;3.90;99.90;;;;;;5066835;28;20202;-63
2020/12/30 00:37:15;;;;;;;6.97;4.47;;;4.00;99.90;;;;;;5068708;28;20566;-62
2020/12/30 00:39:42;;;;;;;6.60;4.47;;;4.00;99.90;;;;;;5067377;28;20225;-57
2020/12/30 00:42:08;;;;;;;7.83;4.40;;;3.90;99.90;;;;;;5060757;28;20213;-61
2020/12/30 00:44:35;;;;;;;8.03;4.47;;;3.90;99.90;;;;;;5066269;28;20202;-62
2020/12/30 00:47:01;;;;;;;7.13;4.30;;;3.90;99.90;;;;;;5067860;28;20206;-62
2020/12/30 00:49:28;;;;;;;7.97;4.20;;;3.90;99.90;;;;;;5069523;28;20218;-61
2020/12/30 00:51:56;;;;;;;7.73;4.53;;;3.90;99.90;;;;;;5067272;28;20649;-62
2020/12/30 00:54:23;;;;;;;7.10;4.67;;;4.00;99.90;;;;;;5067726;28;20195;-58
2020/12/30 00:56:50;;;;;;;8.40;4.70;;;3.90;99.90;;;;;;5063519;28;20221;-62
2020/12/30 00:59:17;;;;;;;7.73;4.50;;;3.90;99.90;;;;;;5068290;28;20240;-63
2020/12/30 01:01:44;;;;;;;9.37;4.30;;;3.90;99.90;;;;;;5064293;28;20200;-62
2020/12/30 01:04:11;;;;;;;8.83;4.53;;;3.90;99.90;;;;;;5067090;28;20612;-62
2020/12/30 01:06:37;;;;;;;6.63;4.60;;;4.00;99.90;;;;;;5058641;28;20555;-61
2020/12/30 01:09:05;;;;;;;8.20;4.53;;;3.90;99.90;;;;;;5052039;28;20207;-61
2020/12/30 01:11:32;;;;;;;9.13;4.00;;;3.80;99.90;;;;;;5062933;28;20222;-62
2020/12/30 01:13:58;;;;;;;7.37;4.60;;;3.80;99.90;;;;;;5069533;28;20233;-61
2020/12/30 01:16:25;;;;;;;8.63;4.60;;;3.80;99.90;;;;;;5068511;28;20210;-62
2020/12/30 01:18:53;;;;;;;8.17;4.47;;;3.70;99.90;;;;;;5069660;28;20199;-61
2020/12/30 01:21:19;;;;;;;8.27;4.10;;;3.70;99.90;;;;;;5070424;28;20256;-62
2020/12/30 01:23:45;;;;;;;7.63;4.30;;;3.60;99.90;;;;;;5068581;28;20206;-63
2020/12/30 01:26:12;;;;;;;6.97;4.33;;;3.60;99.90;;;;;;5069977;28;20199;-61
2020/12/30 01:28:38;;;;;;;8.60;4.73;;;3.60;99.90;;;;;;5069034;28;20206;-60
2020/12/30 01:31:04;;;;;;;7.60;4.27;;;3.50;99.90;;;;;;5062425;28;20226;-61
2020/12/30 01:33:31;;;;;;;8.03;4.63;;;3.40;99.90;;;;;;5061787;28;20268;-60
2020/12/30 01:35:58;;;;;;;9.77;4.83;;;3.40;99.90;;;;;;5069880;28;20195;-62
2020/12/30 01:38:24;;;;;;;7.00;4.73;;;3.30;99.90;;;;;;5071928;28;20248;-59
2020/12/30 01:40:54;;;;;;;7.27;4.30;;;3.30;99.90;;;;;;5064679;28;20306;-61
2020/12/30 01:43:20;;;;;;;9.23;4.50;;;3.30;99.90;;;;;;5073324;28;20194;-62
2020/12/30 01:45:48;;;;;;;6.23;4.00;;;3.20;99.90;;;;;;5073621;28;20209;-62
2020/12/30 01:48:16;;;;;;;6.97;4.43;;;3.00;99.90;;;;;;5074099;28;20202;-61
2020/12/30 01:50:43;;;;;;;7.47;4.43;;;3.00;99.90;;;;;;5072803;28;20685;-60
2020/12/30 01:53:12;;;;;;;6.60;4.87;;;2.90;99.90;;;;;;5072799;28;20198;-55
2020/12/30 01:55:40;;;;;;;7.07;4.87;;;2.90;99.90;;;;;;5072959;28;20208;-62
2020/12/30 01:58:06;;;;;;;7.97;4.90;;;2.90;99.90;;;;;;5072741;28;20252;-62
2020/12/30 02:00:33;;;;;;;9.40;4.80;;;3.00;99.90;;;;;;5072599;28;20223;-60
2020/12/30 02:03:02;;;;;;;6.87;4.43;;;2.90;99.90;;;;;;5073028;28;20202;-60
2020/12/30 02:05:31;;;;;;;7.67;4.77;;;2.80;99.90;;;;;;5073459;28;20202;-59
2020/12/30 02:07:59;;;;;;;9.97;4.50;;;2.60;99.90;;;;;;5069541;28;20216;-62
2020/12/30 02:10:28;;;;;;;7.27;4.57;;;2.60;99.90;;;;;;5071874;28;20222;-63
2020/12/30 02:12:55;;;;;;;7.00;4.37;;;2.50;99.90;;;;;;5071152;28;20198;-62
2020/12/30 02:15:29;;;;;;;6.13;4.50;;;2.50;99.90;;;;;;5071414;28;20217;-61
2020/12/30 02:17:56;;;;;;;8.10;4.87;;;2.60;99.90;;;;;;5070769;28;20603;-61
2020/12/30 02:20:22;;;;;;;9.47;4.90;;;2.60;99.90;;;;;;5071409;28;20218;-60
2020/12/30 02:22:58;;;;;;;9.80;5.33;;;2.60;99.90;;;;;;5069089;28;20244;-62
2020/12/30 02:25:25;;;;;;;8.50;4.73;;;2.40;99.90;;;;;;5064818;28;20896;-62
2020/12/30 02:27:51;;;;;;;8.47;4.70;;;2.40;99.90;;;;;;5072275;28;20291;-63
2020/12/30 02:30:18;;;;;;;10.77;5.80;;;2.30;99.90;;;;;;5071972;28;20518;-61
2020/12/30 02:32:46;;;;;;;9.83;5.20;;;2.20;99.90;;;;;;5072962;28;20206;-59
2020/12/30 02:35:12;;;;;;;8.63;5.30;;;2.00;99.90;;;;;;5071677;28;20218;-60
2020/12/30 02:37:38;;;;;;;9.23;5.17;;;2.00;99.90;;;;;;5071901;28;20202;-59
2020/12/30 02:40:05;;;;;;;8.83;4.93;;;2.20;99.90;;;;;;5074305;28;21333;-59
2020/12/30 02:42:33;;;;;;;8.97;5.37;;;2.30;99.90;;;;;;5073571;28;20194;-61
2020/12/30 02:45:04;;;;;;;9.57;5.17;;;2.30;99.90;;;;;;5083133;22;20246;-55
2020/12/30 02:47:31;;;;;;;11.07;5.57;;;2.20;99.90;;;;;;5048779;28;20199;-58
2020/12/30 02:49:58;;;;;;;8.77;5.00;;;2.30;99.90;;;;;;5049921;28;20209;-58
2020/12/30 02:52:25;;;;;;;8.53;5.00;;;2.30;99.90;;;;;;5052273;28;20215;-59
2020/12/30 02:54:51;;;;;;;8.93;4.37;;;2.30;99.90;;;;;;5043262;28;20222;-55
2020/12/30 02:57:17;;;;;;;9.97;5.40;;;2.40;99.90;;;;;;5051356;28;20620;-55
2020/12/30 02:59:44;;;;;;;7.43;4.77;;;2.40;99.90;;;;;;5052283;28;20203;-58
2020/12/30 03:02:11;;;;;;;8.27;5.00;;;2.40;99.90;;;;;;5051376;28;20198;-57
2020/12/30 03:04:37;;;;;;;8.80;4.97;;;2.60;99.90;;;;;;5051685;28;20234;-58
2020/12/30 03:07:04;;;;;;;7.40;4.83;;;2.60;99.90;;;;;;5051162;28;20203;-58
2020/12/30 03:09:31;;;;;;;9.20;4.87;;;2.60;99.90;;;;;;5046742;28;20229;-60
2020/12/30 03:11:57;;;;;;;8.03;5.07;;;2.60;99.90;;;;;;5044182;28;20281;-56
2020/12/30 03:14:23;;;;;;;8.63;4.70;;;2.50;99.90;;;;;;5039971;28;20233;-58
2020/12/30 03:16:50;;;;;;;8.07;5.00;;;2.50;99.90;;;;;;5051142;28;20199;-57
2020/12/30 03:19:17;;;;;;;7.33;4.60;;;2.60;99.90;;;;;;5051767;28;20604;-58
2020/12/30 03:21:43;;;;;;;8.20;4.80;;;2.60;99.90;;;;;;5051498;28;20195;-57
2020/12/30 03:24:09;;;;;;;10.20;5.30;;;2.60;99.90;;;;;;5050857;28;20213;-60
2020/12/30 03:26:35;;;;;;;9.73;5.53;;;2.60;99.90;;;;;;5051480;28;20646;-60
2020/12/30 03:29:02;;;;;;;8.27;4.90;;;2.50;99.90;;;;;;5052091;28;20209;-58
2020/12/30 03:31:29;;;;;;;10.93;5.47;;;2.70;99.90;;;;;;5051368;28;20523;-57
2020/12/30 03:33:57;;;;;;;6.27;4.40;;;2.60;99.90;;;;;;5051202;28;20743;-59
2020/12/30 03:36:23;;;;;;;7.53;4.63;;;2.60;99.90;;;;;;5050948;28;20684;-56
2020/12/30 03:38:50;;;;;;;8.97;5.03;;;2.40;99.90;;;;;;5047119;28;20294;-60
2020/12/30 03:41:17;;;;;;;8.87;5.23;;;2.50;99.90;;;;;;5045833;28;20195;-55
2020/12/30 03:43:43;;;;;;;7.67;5.10;;;2.50;99.90;;;;;;5050528;28;20199;-57
2020/12/30 03:46:10;;;;;;;7.70;5.50;;;2.50;99.90;;;;;;5050166;28;20239;-56
2020/12/30 03:48:36;;;;;;;9.53;5.73;;;2.40;99.90;;;;;;5050355;28;20574;-57
2020/12/30 03:51:03;;;;;;;7.90;5.00;;;2.40;99.90;;;;;;5050279;28;20242;-56
2020/12/30 03:53:29;;;;;;;8.83;5.00;;;2.30;99.90;;;;;;5050467;28;20665;-58
2020/12/30 03:55:56;;;;;;;7.53;5.10;;;2.30;99.90;;;;;;5051338;28;20219;-58
2020/12/30 03:58:22;;;;;;;8.73;5.17;;;2.20;99.90;;;;;;5051150;28;20207;-55
2020/12/30 04:00:48;;;;;;;8.93;5.40;;;2.20;99.90;;;;;;5050993;28;20195;-56
2020/12/30 04:03:15;;;;;;;8.13;5.10;;;2.20;99.90;;;;;;5046495;28;20232;-56
2020/12/30 04:05:41;;;;;;;10.53;5.03;;;2.10;99.90;;;;;;5049475;28;20230;-56
2020/12/30 04:08:08;;;;;;;8.93;5.20;;;2.20;99.90;;;;;;5048820;28;20211;-55
2020/12/30 04:10:34;;;;;;;8.43;5.73;;;2.10;99.90;;;;;;5045151;28;20202;-55
2020/12/30 04:13:01;;;;;;;8.40;5.87;;;2.10;99.90;;;;;;5044815;28;20200;-58
2020/12/30 04:15:27;;;;;;;8.57;5.37;;;2.00;99.90;;;;;;5044710;28;20719;-54
2020/12/30 04:17:53;;;;;;;10.23;6.37;;;2.00;99.90;;;;;;5049621;28;20198;-57
2020/12/30 04:20:20;;;;;;;11.10;7.70;;;1.90;99.90;;;;;;5050121;28;20281;-58
2020/12/30 04:22:46;;;;;;;14.73;7.60;;;1.90;99.90;;;;;;5049825;28;20253;-57
2020/12/30 04:25:13;;;;;;;12.50;7.70;;;1.90;99.90;;;;;;5049941;28;20222;-55
2020/12/30 04:27:39;;;;;;;10.93;7.20;;;1.80;99.90;;;;;;5050480;28;20203;-58
2020/12/30 04:30:06;;;;;;;9.43;6.63;;;1.80;99.90;;;;;;5049469;28;20209;-55
2020/12/30 04:32:32;;;;;;;10.07;6.60;;;1.60;99.90;;;;;;5050895;28;20231;-59
2020/12/30 04:34:58;;;;;;;14.27;6.97;;;1.60;99.90;;;;;;5049459;28;20252;-57
2020/12/30 04:37:25;;;;;;;15.10;9.63;;;1.70;99.90;;;;;;5039718;28;20195;-58
2020/12/30 04:39:51;;;;;;;10.40;6.37;;;1.70;99.90;;;;;;5043912;28;20575;-55
2020/12/30 04:42:30;;;;;;;12.00;6.50;;;1.70;99.90;;;;;;5049636;28;20203;-55
2020/12/30 04:44:59;;;;;;;10.40;5.70;;;1.70;99.90;;;;;;5046041;28;20226;-57
2020/12/30 04:47:28;;;;;;;9.10;5.73;;;1.80;99.90;;;;;;5046851;28;20199;-55
2020/12/30 04:49:54;;;;;;;10.67;6.23;;;1.70;99.90;;;;;;5042476;28;20671;-59
2020/12/30 04:52:22;;;;;;;12.53;8.07;;;1.70;99.90;;;;;;5048659;28;20219;-54
2020/12/30 04:54:50;;;;;;;17.67;9.97;;;1.60;99.90;;;;;;5048771;28;20215;-58
2020/12/30 04:57:29;;;;;;;12.27;7.57;;;1.60;99.90;;;;;;5049951;28;20245;-58
2020/12/30 04:59:57;;;;;;;14.47;9.20;;;1.50;99.90;;;;;;5049945;28;20199;-54
2020/12/30 05:02:32;;;;;;;15.60;9.60;;;1.50;99.90;;;;;;5050466;28;20203;-59
2020/12/30 05:04:59;;;;;;;20.23;14.50;;;1.50;99.90;;;;;;5049346;28;20704;-55
2020/12/30 05:07:28;;;;;;;13.37;8.07;;;1.60;99.90;;;;;;5050083;28;20210;-59
2020/12/30 05:09:55;;;;;;;14.43;7.90;;;1.50;99.90;;;;;;5050541;28;20265;-56
2020/12/30 05:12:23;;;;;;;14.97;10.90;;;1.40;99.90;;;;;;5053046;28;20219;-57
2020/12/30 05:14:50;;;;;;;15.27;9.83;;;1.30;99.90;;;;;;5053322;28;20223;-57
2020/12/30 05:17:17;;;;;;;12.53;6.87;;;1.20;99.90;;;;;;5051521;28;20277;-54
2020/12/30 05:19:45;;;;;;;8.23;5.73;;;1.20;99.90;;;;;;5044576;28;20206;-59
2020/12/30 05:22:19;;;;;;;10.90;6.50;;;1.20;99.90;;;;;;5052651;28;20207;-59
2020/12/30 05:24:46;;;;;;;9.43;5.73;;;1.10;99.90;;;;;;5052741;28;20284;-59
2020/12/30 05:27:13;;;;;;;8.90;5.30;;;1.10;99.90;;;;;;5054207;28;20703;-58
2020/12/30 05:29:49;;;;;;;12.37;4.93;;;1.00;99.90;;;;;;5053579;28;20199;-58
2020/12/30 05:32:16;;;;;;;9.47;4.60;;;1.10;99.90;;;;;;5053831;28;20292;-56
2020/12/30 05:34:42;;;;;;;9.93;5.17;;;1.10;99.90;;;;;;5052599;28;20302;-58
2020/12/30 05:37:10;;;;;;;8.47;4.67;;;1.00;99.90;;;;;;5053740;28;20199;-54
2020/12/30 05:39:36;;;;;;;5.83;4.00;;;1.00;99.90;;;;;;5048324;28;20216;-57
2020/12/30 05:42:10;;;;;;;7.97;4.30;;;1.00;99.90;;;;;;5050157;28;20697;-56
2020/12/30 05:44:37;;;;;;;7.53;4.70;;;1.10;99.90;;;;;;5050673;28;20231;-57
2020/12/30 05:47:12;;;;;;;8.83;4.40;;;1.10;99.90;;;;;;5053591;28;20248;-58
2020/12/30 05:49:38;;;;;;;6.97;4.50;;;1.00;99.90;;;;;;5053781;28;20206;-56
2020/12/30 05:52:19;;;;;;;7.93;4.53;;;0.80;99.90;;;;;;5053064;28;20226;-56
2020/12/30 05:54:51;;;;;;;9.07;4.87;;;0.70;99.90;;;;;;5052314;28;20214;-55
2020/12/30 05:57:29;;;;;;;6.97;4.20;;;0.50;99.90;;;;;;5053380;28;20203;-58
2020/12/30 05:59:58;;;;;;;8.97;5.03;;;0.50;99.90;;;;;;5053156;28;20202;-54
2020/12/30 06:02:28;;;;;;;15.53;9.43;;;0.60;99.90;;;;;;5052896;28;20591;-56
2020/12/30 06:04:55;;;;;;;8.40;4.80;;;0.60;99.90;;;;;;5053107;28;20223;-56
2020/12/30 06:07:24;;;;;;;9.57;4.97;;;0.70;99.90;;;;;;5046358;28;20207;-56
2020/12/30 06:09:55;;;;;;;9.77;4.83;;;0.50;99.90;;;;;;5040994;28;20253;-56
2020/12/30 06:12:26;;;;;;;8.63;5.33;;;0.60;99.90;;;;;;5052624;28;20223;-55
2020/12/30 06:14:54;;;;;;;9.13;5.17;;;0.50;99.90;;;;;;5051991;28;20709;-56
2020/12/30 06:17:31;;;;;;;6.27;4.27;;;0.40;99.90;;;;;;5052082;28;20249;-53
2020/12/30 06:19:58;;;;;;;6.87;4.63;;;0.60;99.90;;;;;;5053326;28;20207;-55
2020/12/30 06:22:25;;;;;;;7.83;4.23;;;0.50;99.90;;;;;;5052595;28;20206;-54
2020/12/30 06:24:56;;;;;;;10.90;5.43;;;0.50;99.90;;;;;;5051799;28;20219;-57
2020/12/30 06:27:25;;;;;;;10.57;5.13;;;0.60;99.90;;;;;;5052801;28;20341;-57
2020/12/30 06:29:54;;;;;;;7.57;4.47;;;0.80;99.90;;;;;;5049923;28;20203;-55
2020/12/30 06:32:32;;;;;;;8.37;4.60;;;0.70;99.90;;;;;;5039536;28;20230;-53
2020/12/30 06:35:00;;;;;;;9.70;4.77;;;0.80;99.90;;;;;;5045695;28;20219;-54
2020/12/30 06:37:36;;;;;;;8.67;4.57;;;0.70;99.90;;;;;;5052496;28;20199;-52
2020/12/30 06:40:28;;;;;;;7.20;4.77;;;0.80;99.90;;;;;;5052501;28;20206;-55
2020/12/30 06:42:56;;;;;;;9.67;5.73;;;0.90;99.90;;;;;;5048127;28;20599;-57
2020/12/30 06:45:48;;;;;;;9.23;5.27;;;0.90;99.90;;;;;;5051013;28;20580;-55
2020/12/30 06:48:16;;;;;;;8.57;4.57;;;0.90;99.90;;;;;;5045961;28;20551;-54
2020/12/30 06:50:42;;;;;;;6.47;4.80;;;0.90;99.90;;;;;;5051668;28;20670;-53
2020/12/30 06:53:39;;;;;;;10.87;5.70;;;0.80;99.90;;;;;;5044811;28;20256;-54
2020/12/30 06:56:05;;;;;;;10.17;6.07;;;0.90;99.90;;;;;;5046821;28;20352;-57
2020/12/30 06:58:49;;;;;;;11.27;5.30;;;1.10;99.90;;;;;;5051825;28;20203;-55
2020/12/30 07:01:17;;;;;;;7.47;4.83;;;0.90;99.90;;;;;;5048832;28;20304;-53
2020/12/30 07:03:45;;;;;;;9.00;5.00;;;0.70;99.90;;;;;;5051090;28;20199;-57
2020/12/30 07:06:30;;;;;;;9.33;5.77;;;0.60;99.90;;;;;;5052391;28;20227;-55
2020/12/30 07:08:58;;;;;;;12.20;7.37;;;0.80;99.90;;;;;;5051627;28;20651;-54
2020/12/30 07:11:45;;;;;;;8.87;5.77;;;0.70;99.90;;;;;;5051760;28;20226;-55
2020/12/30 07:14:12;;;;;;;11.30;6.27;;;0.80;99.90;;;;;;5050811;28;20203;-53
2020/12/30 07:16:40;;;;;;;9.37;5.80;;;1.00;99.90;;;;;;5046456;28;20581;-58
2020/12/30 07:19:12;;;;;;;9.50;6.37;;;1.10;99.90;;;;;;5050427;28;20211;-57
2020/12/30 07:22:02;;;;;;;12.63;6.10;;;1.40;99.90;;;;;;5052371;28;20213;-55
2020/12/30 07:24:31;;;;;;;10.33;6.40;;;1.50;99.90;;;;;;5051674;28;20222;-54
2020/12/30 07:26:59;;;;;;;13.07;6.70;;;1.60;99.90;;;;;;5054201;28;20207;-57
2020/12/30 07:29:26;;;;;;;10.37;5.77;;;1.70;99.90;;;;;;5057219;28;20202;-53
2020/12/30 07:31:55;;;;;;;9.33;5.53;;;1.80;99.90;;;;;;5053809;28;20215;-52
2020/12/30 07:34:25;;;;;;;11.80;5.70;;;1.70;99.90;;;;;;5055456;28;20226;-55
2020/12/30 07:36:52;;;;;;;12.63;6.23;;;1.60;99.90;;;;;;5054115;28;20199;-53
2020/12/30 07:39:25;;;;;;;8.90;5.40;;;1.60;99.90;;;;;;5054056;28;20416;-53
2020/12/30 07:41:51;;;;;;;10.80;5.80;;;1.90;99.90;;;;;;5042729;28;20199;-54
2020/12/30 07:44:17;;;;;;;7.83;5.23;;;1.90;99.90;;;;;;5049000;28;20670;-54
2020/12/30 07:46:44;;;;;;;10.63;5.80;;;2.30;99.90;;;;;;5050466;28;20244;-56
2020/12/30 07:49:15;;;;;;;10.43;6.67;;;2.20;99.90;;;;;;5051851;28;20256;-53
2020/12/30 07:51:50;;;;;;;14.50;7.13;;;2.20;99.90;;;;;;5051121;28;20223;-53
2020/12/30 07:54:19;;;;;;;14.47;9.73;;;2.40;99.90;;;;;;5037852;28;20206;-56
2020/12/30 07:56:46;;;;;;;13.20;7.20;;;2.30;99.90;;;;;;5050906;28;20686;-55
2020/12/30 07:59:20;;;;;;;11.50;8.20;;;2.30;99.90;;;;;;5051061;28;20210;-55
2020/12/30 08:01:54;;;;;;;11.73;7.57;;;2.30;99.90;;;;;;5050941;28;20289;-54
2020/12/30 08:04:20;;;;;;;10.97;7.50;;;2.30;99.90;;;;;;5047898;28;20481;-55
2020/12/30 08:06:47;;;;;;;11.60;7.07;;;2.10;99.90;;;;;;5043773;28;20198;-57
2020/12/30 08:09:15;;;;;;;9.33;5.83;;;2.10;99.90;;;;;;5049427;28;20198;-54
2020/12/30 08:11:48;;;;;;;9.63;5.90;;;2.20;99.90;;;;;;5042610;28;20613;-54
2020/12/30 08:14:15;;;;;;;9.97;5.90;;;2.30;99.90;;;;;;5050059;28;20198;-54
2020/12/30 08:16:54;;;;;;;9.10;5.90;;;2.10;99.90;;;;;;5050462;28;20203;-55
2020/12/30 08:19:40;;;;;;;12.30;5.73;;;2.20;99.90;;;;;;5050951;28;20194;-53
2020/12/30 08:22:08;;;;;;;13.07;6.13;;;2.20;99.90;;;;;;5043352;28;20539;-54
2020/12/30 08:24:37;;;;;;;12.10;6.00;;;2.10;99.90;;;;;;5050154;28;20728;-58
2020/12/30 08:27:05;;;;;;;9.57;6.00;;;2.40;99.90;;;;;;5050491;28;20199;-56
2020/12/30 08:29:32;;;;;;;8.90;5.87;;;2.60;99.90;;;;;;5050408;28;20640;-56
2020/12/30 08:32:02;;;;;;;12.17;6.60;;;2.70;99.90;;;;;;5045583;28;20230;-54
2020/12/30 08:34:42;;;;;;;9.67;7.10;;;2.90;99.90;;;;;;5040934;28;20223;-56
2020/12/30 08:37:11;;;;;;;9.77;6.77;;;2.90;99.90;;;;;;5048461;28;20263;-55
2020/12/30 08:39:45;;;;;;;16.13;8.70;;;3.10;99.90;;;;;;5049698;28;20206;-53
2020/12/30 08:42:35;;;;;;;11.93;6.20;;;3.40;99.90;;;;;;5050387;28;20666;-53
2020/12/30 08:47:38;;;;;;;9.23;5.90;;;3.40;99.90;;;;;;5099552;22;20237;-58
2020/12/30 08:50:08;;;;;;;8.77;5.50;;;3.40;99.90;;;;;;5074941;28;20202;-62
2020/12/30 08:52:41;;;;;;;11.37;5.90;;;3.40;99.90;;;;;;5071089;28;20220;-56
2020/12/30 08:55:09;;;;;;;10.03;5.90;;;3.50;99.90;;;;;;5079932;28;20228;-57
2020/12/30 08:57:36;;;;;;;10.30;6.23;;;3.70;99.90;;;;;;5059299;28;20202;-62
2020/12/30 09:00:12;;;;;;;8.70;5.80;;;3.90;99.90;;;;;;5066038;28;20199;-60
2020/12/30 09:02:39;;;;;;;22.00;7.17;;;4.00;99.90;;;;;;5071715;28;20194;-59
2020/12/30 09:05:05;;;;;;;9.53;5.17;;;4.30;99.90;;;;;;5064804;28;20222;-60
2020/12/30 09:07:32;;;;;;;11.63;6.23;;;4.10;99.90;;;;;;5069407;28;20649;-61
2020/12/30 09:10:06;;;;;;;8.47;5.50;;;4.10;99.90;;;;;;5067113;28;20686;-59
2020/12/30 09:12:33;;;;;;;10.27;5.83;;;3.90;99.90;;;;;;5066745;28;20236;-62
2020/12/30 09:14:59;;;;;;;11.33;6.57;;;3.90;99.90;;;;;;5069711;28;20199;-60
2020/12/30 09:17:26;;;;;;;10.67;6.00;;;3.70;99.90;;;;;;5073231;28;20213;-62
2020/12/30 09:20:11;;;;;;;9.63;6.43;;;3.50;99.90;;;;;;5071089;28;20620;-60
2020/12/30 09:22:38;;;;;;;11.23;6.70;;;3.80;99.90;;;;;;5066760;28;20190;-62
2020/12/30 09:25:05;;;;;;;8.63;5.60;;;4.30;99.90;;;;;;5067689;28;20218;-59
2020/12/30 09:27:34;;;;;;;9.40;5.47;;;4.30;99.90;;;;;;5066950;28;20244;-59
2020/12/30 09:30:09;;;;;;;8.77;6.00;;;4.10;99.90;;;;;;5070084;28;20199;-60
2020/12/30 09:32:35;;;;;;;11.50;6.43;;;4.10;99.90;;;;;;5070739;28;20213;-59
2020/12/30 09:35:02;;;;;;;11.40;6.67;;;4.10;99.90;;;;;;5069025;28;20253;-60
2020/12/30 09:37:28;;;;;;;11.97;6.83;;;4.30;99.90;;;;;;5069192;28;20199;-60
2020/12/30 09:40:09;;;;;;;11.97;6.10;;;4.60;99.90;;;;;;5069763;28;20264;-57
2020/12/30 09:42:37;;;;;;;10.30;5.90;;;5.20;99.90;;;;;;5064547;28;20206;-57
2020/12/30 09:45:05;;;;;;;12.60;7.13;;;5.60;99.90;;;;;;5071162;28;20283;-58
2020/12/30 09:47:31;;;;;;;11.93;6.30;;;5.80;99.90;;;;;;5062747;28;20268;-62
2020/12/30 09:49:57;;;;;;;10.40;6.40;;;6.30;99.90;;;;;;5068224;28;20202;-63
2020/12/30 09:52:24;;;;;;;11.33;6.60;;;5.30;99.90;;;;;;5063306;28;20222;-60
2020/12/30 09:54:50;;;;;;;9.30;6.10;;;5.10;99.90;;;;;;5070295;28;20198;-61
2020/12/30 09:57:17;;;;;;;9.93;6.43;;;5.00;99.90;;;;;;5069565;28;20202;-62
2020/12/30 09:59:44;;;;;;;10.40;6.40;;;4.90;99.90;;;;;;5076030;28;20198;-58
2020/12/30 10:02:11;;;;;;;10.10;6.43;;;5.00;99.90;;;;;;5076537;28;20202;-60
2020/12/30 10:04:39;;;;;;;11.50;6.97;;;5.00;99.90;;;;;;5074903;28;20205;-62
2020/12/30 10:07:05;;;;;;;11.83;6.77;;;5.10;99.90;;;;;;5074023;28;20226;-61
2020/12/30 10:09:32;;;;;;;12.00;6.20;;;5.10;99.90;;;;;;5073367;28;20668;-61
2020/12/30 10:11:58;;;;;;;12.00;6.80;;;5.20;99.90;;;;;;5076550;28;20289;-59
2020/12/30 10:14:24;;;;;;;9.37;5.57;;;5.10;99.90;;;;;;5075990;28;20210;-61
2020/12/30 10:16:51;;;;;;;10.00;6.20;;;5.00;99.90;;;;;;5075130;28;20254;-58
2020/12/30 10:19:18;;;;;;;10.93;5.87;;;5.00;99.90;;;;;;5075341;28;20292;-59
2020/12/30 10:21:44;;;;;;;9.93;6.13;;;5.10;99.90;;;;;;5077972;28;20202;-59
2020/12/30 10:24:10;;;;;;;9.90;6.30;;;5.10;99.90;;;;;;5075587;28;20212;-59
2020/12/30 10:26:36;;;;;;;11.40;6.00;;;5.00;99.90;;;;;;5074620;28;20240;-62
2020/12/30 10:29:03;;;;;;;9.47;5.93;;;5.00;99.90;;;;;;5072684;28;20569;-60
2020/12/30 10:31:29;;;;;;;9.93;5.97;;;5.10;99.90;;;;;;5072358;28;20708;-61
2020/12/30 10:33:56;;;;;;;9.23;5.30;;;5.00;99.90;;;;;;5076027;28;20207;-62
2020/12/30 10:36:28;;;;;;;9.60;5.50;;;5.00;99.90;;;;;;5074148;28;20222;-61
2020/12/30 10:38:55;;;;;;;9.83;5.90;;;5.10;99.90;;;;;;5072870;28;20199;-60
2020/12/30 10:41:22;;;;;;;10.13;5.37;;;5.10;99.90;;;;;;5073386;28;20581;-62
2020/12/30 10:43:48;;;;;;;7.47;4.93;;;5.00;99.90;;;;;;5071190;28;20712;-61
2020/12/30 10:46:15;;;;;;;7.43;5.30;;;5.00;99.90;;;;;;5069905;28;20247;-61
2020/12/30 10:48:44;;;;;;;7.37;4.60;;;5.00;99.90;;;;;;5071425;28;20674;-60
2020/12/30 10:51:11;;;;;;;9.17;4.97;;;4.90;99.90;;;;;;5071511;28;20623;-61
2020/12/30 10:53:38;;;;;;;8.10;5.10;;;5.00;99.90;;;;;;5070587;28;20224;-61
2020/12/30 10:56:04;;;;;;;8.17;5.27;;;5.00;99.90;;;;;;5071515;28;20230;-62
2020/12/30 10:58:30;;;;;;;8.10;5.03;;;5.00;99.90;;;;;;5068740;28;20577;-61
2020/12/30 11:00:57;;;;;;;9.23;5.57;;;5.10;99.90;;;;;;5071557;28;20206;-62
2020/12/30 11:03:23;;;;;;;7.70;5.13;;;5.20;99.90;;;;;;5070459;28;20401;-61
2020/12/30 11:05:49;;;;;;;10.00;5.37;;;5.20;99.90;;;;;;5070178;28;20225;-62
2020/12/30 11:08:17;;;;;;;8.47;5.20;;;5.30;99.90;;;;;;5070011;28;20206;-59
2020/12/30 11:10:43;;;;;;;9.23;5.23;;;5.20;99.90;;;;;;5070910;28;20585;-60
2020/12/30 11:13:09;;;;;;;8.80;5.37;;;5.20;99.90;;;;;;5070589;28;20240;-62
2020/12/30 11:15:35;;;;;;;8.40;5.10;;;5.10;99.90;;;;;;5069660;28;20727;-58
2020/12/30 11:18:03;;;;;;;10.50;5.33;;;5.10;99.90;;;;;;5071197;28;20264;-61
2020/12/30 11:20:29;;;;;;;10.43;5.43;;;5.20;99.90;;;;;;5072875;28;20194;-61
2020/12/30 11:22:55;;;;;;;8.57;4.80;;;5.30;99.90;;;;;;5073179;28;20202;-58
2020/12/30 11:25:23;;;;;;;7.83;4.50;;;5.40;99.90;;;;;;5069553;28;20232;-61
2020/12/30 11:27:50;;;;;;;6.13;4.67;;;5.50;99.90;;;;;;5071689;28;20212;-62
2020/12/30 11:30:16;;;;;;;8.03;4.73;;;5.50;99.90;;;;;;5082904;28;20214;-56
2020/12/30 11:32:43;;;;;;;7.93;4.77;;;5.40;99.90;;;;;;5065046;28;20226;-60
2020/12/30 11:35:10;;;;;;;8.23;5.47;;;5.30;99.90;;;;;;5064673;28;20214;-58
2020/12/30 11:37:37;;;;;;;9.83;5.10;;;5.10;99.90;;;;;;5066591;28;20201;-60
2020/12/30 11:40:04;;;;;;;9.60;5.90;;;5.10;99.90;;;;;;5070214;28;20203;-59
2020/12/30 11:42:31;;;;;;;11.37;5.70;;;5.00;99.90;;;;;;5071108;28;20228;-56
2020/12/30 11:44:58;;;;;;;11.27;6.30;;;5.00;99.90;;;;;;5065397;28;20202;-60
2020/12/30 11:47:24;;;;;;;13.53;6.93;;;5.00;99.90;;;;;;5061448;28;20305;-54
2020/12/30 11:49:51;;;;;;;11.37;6.53;;;5.10;99.90;;;;;;5068611;28;20195;-58
2020/12/30 11:52:17;;;;;;;9.73;6.20;;;5.30;99.90;;;;;;5070184;28;20218;-56
2020/12/30 11:54:44;;;;;;;10.63;6.07;;;5.40;99.90;;;;;;5069007;28;20207;-59
2020/12/30 11:57:10;;;;;;;14.47;6.93;;;5.60;99.90;;;;;;5065019;28;20202;-53
2020/12/30 11:59:37;;;;;;;10.33;6.07;;;5.80;99.90;;;;;;5070822;28;20263;-55
2020/12/30 12:02:03;;;;;;;9.97;6.20;;;5.90;99.90;;;;;;5069629;28;20206;-59
2020/12/30 12:04:31;;;;;;;11.80;7.00;;;5.90;99.90;;;;;;5066541;28;20202;-54
2020/12/30 12:06:58;;;;;;;10.47;6.17;;;6.00;99.90;;;;;;5068942;28;20226;-57
2020/12/30 12:09:24;;;;;;;10.00;6.30;;;6.00;99.90;;;;;;5067614;28;20281;-58
2020/12/30 12:11:50;;;;;;;11.43;6.40;;;6.10;99.90;;;;;;5067215;28;20222;-54
2020/12/30 12:14:17;;;;;;;9.40;6.00;;;6.10;99.90;;;;;;5071545;28;20254;-52
2020/12/30 12:16:50;;;;;;;10.33;5.90;;;6.30;99.90;;;;;;5073822;28;20638;-54
2020/12/30 12:19:17;;;;;;;9.03;5.53;;;6.20;99.90;;;;;;5068279;28;20202;-54
2020/12/30 12:21:44;;;;;;;11.30;7.03;;;6.10;99.90;;;;;;5067797;28;20213;-55
2020/12/30 12:24:11;;;;;;;11.80;6.57;;;6.00;99.90;;;;;;5069066;28;20266;-55
2020/12/30 12:26:37;;;;;;;12.70;6.77;;;6.10;99.90;;;;;;5067590;28;20404;-57
2020/12/30 12:29:19;;;;;;;13.07;7.37;;;6.10;99.90;;;;;;5067869;28;20207;-58
2020/12/30 12:31:45;;;;;;;13.30;7.63;;;6.20;99.90;;;;;;5070105;28;20222;-57
2020/12/30 12:34:13;;;;;;;14.67;8.17;;;6.10;99.90;;;;;;5065268;28;20272;-58
2020/12/30 12:36:39;;;;;;;13.20;8.00;;;6.10;99.90;;;;;;5067404;28;20229;-53
2020/12/30 12:39:06;;;;;;;12.30;7.53;;;6.10;99.90;;;;;;5068049;28;20214;-57
2020/12/30 12:41:32;;;;;;;12.93;7.27;;;6.10;99.90;;;;;;5069225;28;20202;-58
2020/12/30 12:43:58;;;;;;;13.33;6.90;;;6.10;99.90;;;;;;5066985;28;20213;-58
2020/12/30 12:46:25;;;;;;;12.27;6.97;;;6.20;99.90;;;;;;5068844;28;20283;-58
2020/12/30 12:48:51;;;;;;;12.00;7.23;;;6.20;99.90;;;;;;5064618;28;20210;-58
2020/12/30 12:51:18;;;;;;;11.33;7.20;;;6.20;99.90;;;;;;5067387;28;20550;-57
2020/12/30 12:53:44;;;;;;;12.00;7.63;;;6.20;99.90;;;;;;5069992;28;20189;-58
2020/12/30 12:56:16;;;;;;;12.03;7.63;;;6.10;99.90;;;;;;5068175;28;20227;-57
2020/12/30 12:58:42;;;;;;;11.77;7.40;;;6.00;99.90;;;;;;5069885;28;20251;-60
2020/12/30 13:01:09;;;;;;;14.30;7.63;;;6.10;99.90;;;;;;5069566;28;20202;-57